Time;durP1;ratioP1;P1;durP2;ratioP2;P2;SDS_P1;SDS_P2;PMS_P1;PMS_P2;Temp;Humidity;BMP_temperature;BMP_pressure;BME280_temperature;BME280_humidity;BME280_pressure;Samples;Min_cycle;Max_cycle;Signal;HPM_P1;HPM_P2
2023/12/05 00:01:08;;;;;;;1.60;1.50;;;;;;;3.22;nan;-19178.44;4971798;28;20177;-64
2023/12/05 00:03:35;;;;;;;1.20;1.20;;;;;;;3.39;nan;-18866.56;4971694;28;20236;-63
2023/12/05 00:06:00;;;;;;;1.10;1.10;;;;;;;3.18;nan;-19177.50;4971662;28;20189;-64
2023/12/05 00:08:26;;;;;;;1.50;1.40;;;;;;;3.45;nan;-19183.19;4943653;28;20191;-64
2023/12/05 00:10:51;;;;;;;1.67;1.53;;;;;;;3.36;nan;-18235.09;4932976;29;20660;-63
2023/12/05 00:13:16;;;;;;;1.40;1.33;;;;;;;3.36;nan;-18550.44;4932930;29;20178;-63
2023/12/05 00:15:42;;;;;;;2.30;1.50;;;;;;;3.23;nan;-18863.22;4933151;29;20216;-64
2023/12/05 00:18:08;;;;;;;1.50;1.40;;;;;;;3.01;nan;-18543.66;4932909;29;20187;-63
2023/12/05 00:20:34;;;;;;;1.60;1.50;;;;;;;3.39;nan;-18551.13;4932898;29;20290;-62
2023/12/05 00:22:59;;;;;;;1.20;1.20;;;;;;;3.22;nan;-18547.78;4932531;29;20631;-64
2023/12/05 00:25:25;;;;;;;1.93;1.83;;;;;;;3.25;nan;-18233.00;4932759;29;20198;-63
2023/12/05 00:27:50;;;;;;;1.90;1.73;;;;;;;3.48;nan;-17921.78;4933574;29;20588;-63
2023/12/05 00:30:16;;;;;;;1.73;1.63;;;;;;;3.29;nan;-17918.25;4936303;29;20265;-63
2023/12/05 00:32:42;;;;;;;1.63;1.53;;;;;;;3.32;nan;-17287.91;4936020;29;20187;-64
2023/12/05 00:35:07;;;;;;;1.77;1.67;;;;;;;3.42;nan;-17605.22;4936211;29;20257;-62
2023/12/05 00:37:33;;;;;;;1.17;1.17;;;;;;;3.39;nan;-17604.69;4935926;29;20183;-63
2023/12/05 00:39:58;;;;;;;1.50;1.40;;;;;;;3.20;nan;-17601.25;4936337;29;20186;-64
2023/12/05 00:42:23;;;;;;;1.30;1.20;;;;;;;3.21;nan;-18547.59;4916887;29;20273;-62
2023/12/05 00:44:49;;;;;;;1.50;1.40;;;;;;;3.17;nan;-18546.81;4933995;29;20770;-62
2023/12/05 00:47:14;;;;;;;1.73;1.63;;;;;;;3.41;nan;-18866.97;4934354;29;20183;-63
2023/12/05 00:49:40;;;;;;;1.27;1.20;;;;;;;3.44;nan;-18236.63;4934610;29;20646;-61
2023/12/05 00:52:05;;;;;;;2.07;1.80;;;;;;;3.25;nan;-18548.38;4934440;29;20266;-62
2023/12/05 00:54:31;;;;;;;1.80;1.70;;;;;;;3.28;nan;-18548.97;4934702;29;20231;-63
2023/12/05 00:56:56;;;;;;;1.27;1.27;;;;;;;3.40;nan;-18551.34;4935501;29;20647;-63
2023/12/05 00:59:22;;;;;;;1.17;1.17;;;;;;;3.43;nan;-18551.91;4936021;29;20171;-65
2023/12/05 01:01:48;;;;;;;1.37;1.33;;;;;;;3.14;nan;-18546.22;4935820;29;20520;-64
2023/12/05 01:04:13;;;;;;;1.53;1.43;;;;;;;3.15;nan;-18546.31;4935771;29;20171;-63
2023/12/05 01:06:38;;;;;;;1.67;1.40;;;;;;;3.10;nan;-18545.53;4935492;29;20650;-62
2023/12/05 01:09:06;;;;;;;1.27;1.27;;;;;;;3.44;nan;-18867.47;4935890;29;20258;-63
2023/12/05 01:11:31;;;;;;;1.10;1.10;;;;;;;3.17;nan;-18862.13;4935807;29;20361;-63
2023/12/05 01:13:57;;;;;;;1.50;1.40;;;;;;;3.35;nan;-18865.75;4935894;29;20347;-63
2023/12/05 01:16:22;;;;;;;1.40;1.30;;;;;;;3.20;nan;-18547.28;4935735;29;20272;-62
2023/12/05 01:18:48;;;;;;;1.17;1.13;;;;;;;3.15;nan;-18861.72;4935522;29;20628;-63
2023/12/05 01:21:13;;;;;;;1.87;1.40;;;;;;;3.06;nan;-19175.09;4935526;29;20175;-63
2023/12/05 01:23:39;;;;;;;1.87;1.77;;;;;;;3.22;nan;-18863.13;4943407;29;20300;-63
2023/12/05 01:26:04;;;;;;;2.07;1.93;;;;;;;3.27;nan;-18548.78;4954390;29;20210;-63
2023/12/05 01:28:29;;;;;;;1.60;1.50;;;;;;;3.26;nan;-18233.19;4954700;29;20276;-62
2023/12/05 01:30:55;;;;;;;1.60;1.50;;;;;;;3.29;nan;-18233.66;4954553;29;20661;-63
2023/12/05 01:33:20;;;;;;;1.67;1.57;;;;;;;3.24;nan;-16971.00;4954384;28;20313;-64
2023/12/05 01:35:46;;;;;;;1.17;1.10;;;;;;;3.36;nan;-16973.06;4954268;29;20178;-64
2023/12/05 01:38:11;;;;;;;1.60;1.50;;;;;;;3.04;nan;-17282.97;4954441;29;20260;-64
2023/12/05 01:40:36;;;;;;;1.23;1.23;;;;;;;3.26;nan;-16971.25;4953270;29;20333;-65
2023/12/05 01:43:02;;;;;;;1.33;1.33;;;;;;;3.07;nan;-15075.06;4936892;29;20185;-64
2023/12/05 01:45:27;;;;;;;1.30;1.30;;;;;;;3.39;nan;-14447.78;4954327;29;20685;-63
2023/12/05 01:47:54;;;;;;;1.50;1.40;;;;;;;3.20;nan;-15076.81;4954338;29;20182;-62
2023/12/05 01:50:27;;;;;;;1.27;1.27;;;;;;;3.22;nan;-14761.38;4954053;29;20185;-62
2023/12/05 01:52:56;;;;;;;1.43;1.33;;;;;;;1.29;nan;-15679.69;4956012;28;20181;-63
2023/12/05 01:55:22;;;;;;;1.13;1.13;;;;;;;3.23;nan;-15708.56;4973451;28;20229;-62
2023/12/05 01:57:49;;;;;;;1.70;1.60;;;;;;;3.37;nan;-13815.81;4973769;28;20181;-63
2023/12/05 02:00:16;;;;;;;1.57;1.47;;;;;;;3.41;nan;-12236.44;4973230;28;20232;-64
2023/12/05 02:02:41;;;;;;;1.60;1.50;;;;;;;3.07;nan;-12865.00;4973135;28;20634;-64
2023/12/05 02:05:07;;;;;;;1.83;1.73;;;;;;;3.10;nan;-11917.69;4972979;28;20244;-62
2023/12/05 02:07:34;;;;;;;1.63;1.53;;;;;;;3.15;nan;-12865.81;4973400;28;20212;-64
2023/12/05 02:09:59;;;;;;;1.30;1.30;;;;;;;3.32;nan;-13815.22;4973268;28;20236;-65
2023/12/05 02:12:25;;;;;;;1.80;1.60;;;;;;;3.24;nan;-13182.63;4972918;28;20177;-62
2023/12/05 02:14:50;;;;;;;1.10;1.10;;;;;;;3.27;nan;-13498.84;4973001;28;20252;-65
2023/12/05 02:17:24;;;;;;;1.20;1.20;;;;;;;3.22;nan;-13182.41;4955436;28;20181;-63
2023/12/05 02:20:01;;;;;;;1.10;1.10;;;;;;;3.08;nan;-13496.69;4972867;28;20196;-63
2023/12/05 02:23:03;;;;;;;1.40;1.30;;;;;;;3.32;nan;-13499.41;4973185;28;20606;-64
2023/12/05 02:25:52;;;;;;;1.10;1.10;;;;;;;3.38;nan;-13500.09;4973151;28;20287;-63
2023/12/05 02:28:18;;;;;;;1.50;1.40;;;;;;;3.36;nan;-13183.88;4932922;28;20280;-65
2023/12/05 02:30:43;;;;;;;1.20;1.20;;;;;;;3.39;nan;-11920.13;4972971;28;20228;-64
2023/12/05 02:33:09;;;;;;;1.40;1.30;;;;;;;3.24;nan;-11918.81;4972549;28;20257;-63
2023/12/05 02:35:35;;;;;;;1.17;1.17;;;;;;;3.34;nan;-12235.78;4973066;28;20188;-63
2023/12/05 02:38:10;;;;;;;1.60;1.50;;;;;;;3.37;nan;-12552.09;4972609;28;20195;-65
2023/12/05 02:41:01;;;;;;;1.30;1.30;;;;;;;3.23;nan;-11918.72;4972433;28;20173;-63
2023/12/05 02:43:38;;;;;;;1.73;1.63;;;;;;;3.19;nan;-13182.03;4972610;28;20177;-64
2023/12/05 02:46:07;;;;;;;2.90;2.00;;;;;;;3.37;nan;-11287.75;4972710;28;20287;-64
2023/12/05 02:48:34;;;;;;;1.20;1.20;;;;;;;1.02;nan;-12529.22;4972592;28;20296;-64
2023/12/05 02:51:00;;;;;;;1.40;1.30;;;;;;;3.35;nan;-13815.63;4972449;28;20177;-64
2023/12/05 02:53:25;;;;;;;1.20;1.20;;;;;;;3.37;nan;-14131.75;4972120;28;20563;-62
2023/12/05 02:55:51;;;;;;;1.20;1.20;;;;;;;3.35;nan;-14131.50;4972510;28;20193;-63
2023/12/05 02:58:16;;;;;;;1.70;1.60;;;;;;;3.31;nan;-12551.44;4972641;28;20311;-63
2023/12/05 03:00:42;;;;;;;1.30;1.30;;;;;;;3.28;nan;-13498.97;4972512;28;20239;-64
2023/12/05 03:03:07;;;;;;;1.50;1.40;;;;;;;3.09;nan;-14444.03;4954922;28;20177;-64
2023/12/05 03:05:33;;;;;;;1.10;1.10;;;;;;;3.23;nan;-14129.97;4972524;28;20244;-64
2023/12/05 03:07:58;;;;;;;2.40;1.93;;;;;;;3.09;nan;-14443.97;4955274;28;20177;-63
2023/12/05 03:10:24;;;;;;;1.57;1.47;;;;;;;3.25;nan;-14446.03;4972657;28;20181;-63
2023/12/05 03:12:49;;;;;;;1.77;1.60;;;;;;;3.22;nan;-14445.66;4972396;28;20180;-64
2023/12/05 03:15:15;;;;;;;1.20;1.20;;;;;;;3.20;nan;-15076.81;4972283;28;20259;-64
2023/12/05 03:17:40;;;;;;;1.50;1.40;;;;;;;3.30;nan;-15393.84;4972312;28;20216;-63
2023/12/05 03:20:06;;;;;;;1.60;1.50;;;;;;;3.18;nan;-14445.13;4972028;28;20540;-62
2023/12/05 03:22:31;;;;;;;2.00;1.90;;;;;;;3.35;nan;-14447.34;4972774;28;20174;-63
2023/12/05 03:24:57;;;;;;;1.43;1.37;;;;;;;3.08;nan;-15390.72;4952555;28;20186;-65
2023/12/05 03:27:22;;;;;;;1.67;1.57;;;;;;;3.14;nan;-15075.97;4952888;29;20668;-64
2023/12/05 03:29:47;;;;;;;1.20;1.20;;;;;;;3.34;nan;-15078.69;4952942;29;20182;-65
2023/12/05 03:32:13;;;;;;;1.53;1.43;;;;;;;3.46;nan;-14764.53;4952474;28;20675;-63
2023/12/05 03:34:39;;;;;;;1.20;1.20;;;;;;;3.34;nan;-15394.50;4935110;29;20257;-64
2023/12/05 03:37:04;;;;;;;1.10;1.10;;;;;;;3.58;nan;-14766.09;4952684;29;20178;-62
2023/12/05 03:39:30;;;;;;;1.30;1.30;;;;;;;3.61;nan;-14134.66;4952654;29;20622;-63
2023/12/05 03:41:55;;;;;;;1.73;1.63;;;;;;;3.80;nan;-13188.63;4951269;28;20209;-64
2023/12/05 03:44:20;;;;;;;1.70;1.60;;;;;;;3.49;nan;-12869.25;4952279;29;20202;-66
2023/12/05 03:46:46;;;;;;;1.20;1.20;;;;;;;3.41;nan;-13816.34;4952297;29;20186;-62
2023/12/05 03:49:11;;;;;;;1.20;1.20;;;;;;;3.20;nan;-15392.41;4952260;29;20620;-65
2023/12/05 03:51:37;;;;;;;1.20;1.20;;;;;;;2.86;nan;-16964.59;4952664;29;20162;-63
2023/12/05 03:54:02;;;;;;;1.30;1.30;;;;;;;3.55;nan;-16660.53;4952256;29;20592;-64
2023/12/05 03:56:28;;;;;;;1.73;1.53;;;;;;;3.57;nan;-16976.53;4952665;29;20170;-63
2023/12/05 03:58:53;;;;;;;1.00;1.00;;;;;;;3.19;nan;-17285.53;4952147;28;20261;-62
2023/12/05 04:01:19;;;;;;;1.83;1.73;;;;;;;3.44;nan;-18236.53;4952328;29;20171;-63
2023/12/05 04:03:45;;;;;;;1.30;1.30;;;;;;;3.30;nan;-18233.97;4954491;28;20162;-63
2023/12/05 04:06:19;;;;;;;1.27;1.27;;;;;;;3.39;nan;-19181.94;4955486;28;20202;-64
2023/12/05 04:08:45;;;;;;;1.23;1.23;;;;;;;3.44;nan;-19498.38;4955754;29;20282;-62
2023/12/05 04:11:10;;;;;;;1.63;1.53;;;;;;;3.49;nan;-19814.72;4955890;29;20721;-63
2023/12/05 04:13:36;;;;;;;2.30;2.00;;;;;;;3.28;nan;-20125.50;4956136;29;20186;-63
2023/12/05 04:16:02;;;;;;;1.60;1.50;;;;;;;3.34;nan;-20126.81;4955808;29;20178;-63
2023/12/05 04:18:28;;;;;;;2.07;1.87;;;;;;;3.42;nan;-20128.50;4956172;29;20170;-64
2023/12/05 04:20:53;;;;;;;1.57;1.47;;;;;;;3.73;nan;-20135.28;4955949;29;20530;-64
2023/12/05 04:23:18;;;;;;;2.40;2.03;;;;;;;3.46;nan;-19814.16;4940284;29;20678;-63
2023/12/05 04:25:44;;;;;;;1.87;1.77;;;;;;;3.78;nan;-20136.41;4955748;29;20198;-64
2023/12/05 04:28:09;;;;;;;1.80;1.63;;;;;;;3.78;nan;-19505.47;4956132;29;20619;-63
2023/12/05 04:30:35;;;;;;;1.30;1.30;;;;;;;3.67;nan;-19503.03;4955374;29;20182;-63
2023/12/05 04:33:00;;;;;;;1.30;1.30;;;;;;;3.69;nan;-19188.06;4955585;29;20225;-63
2023/12/05 04:35:25;;;;;;;1.70;1.60;;;;;;;3.89;nan;-19192.09;4955646;29;20266;-66
2023/12/05 04:37:51;;;;;;;1.93;1.83;;;;;;;3.90;nan;-18876.75;4955603;29;20174;-63
2023/12/05 04:40:19;;;;;;;2.00;1.90;;;;;;;3.91;nan;-18561.16;4955344;29;20174;-63
2023/12/05 04:42:44;;;;;;;1.80;1.67;;;;;;;3.88;nan;-18560.66;4955362;29;20197;-63
2023/12/05 04:45:10;;;;;;;3.07;2.27;;;;;;;3.95;nan;-18246.22;4955409;29;20182;-63
2023/12/05 04:47:35;;;;;;;1.20;1.20;;;;;;;3.73;nan;-17926.44;4955335;29;20205;-63
2023/12/05 04:50:01;;;;;;;1.90;1.70;;;;;;;3.98;nan;-17615.19;4956036;29;20590;-62
2023/12/05 04:52:26;;;;;;;1.60;1.50;;;;;;;3.86;nan;-17613.00;4955348;29;20247;-64
2023/12/05 04:54:51;;;;;;;1.23;1.23;;;;;;;3.93;nan;-17614.28;4937874;29;20256;-64
2023/12/05 04:57:17;;;;;;;1.77;1.67;;;;;;;4.01;nan;-17615.72;4955049;28;20638;-63
2023/12/05 04:59:42;;;;;;;2.20;1.70;;;;;;;4.03;nan;-17300.13;4954749;29;20202;-63
2023/12/05 05:02:07;;;;;;;2.13;1.40;;;;;;;3.93;nan;-17298.47;4954961;29;20565;-65
2023/12/05 05:04:33;;;;;;;1.53;1.43;;;;;;;3.90;nan;-17298.00;4954846;29;20229;-63
2023/12/05 05:06:58;;;;;;;1.70;1.60;;;;;;;3.85;nan;-17297.13;4954618;29;20608;-63
2023/12/05 05:09:24;;;;;;;3.53;1.83;;;;;;;3.83;nan;-17612.56;4955140;29;20277;-64
2023/12/05 05:11:49;;;;;;;1.20;1.20;;;;;;;3.87;nan;-16981.59;4955228;29;20181;-64
2023/12/05 05:14:14;;;;;;;1.77;1.67;;;;;;;3.98;nan;-17299.34;4954090;28;20729;-64
2023/12/05 05:16:40;;;;;;;1.60;1.50;;;;;;;3.81;nan;-17296.44;4954340;29;20217;-64
2023/12/05 05:19:05;;;;;;;3.50;1.83;;;;;;;4.02;nan;-17299.94;4955035;29;20202;-64
2023/12/05 05:21:30;;;;;;;1.90;1.70;;;;;;;;;;4954532;29;20254;-64
2023/12/05 05:23:56;;;;;;;2.90;2.23;;;;;;;3.81;nan;-17296.34;4954557;28;20598;-63
2023/12/05 05:26:21;;;;;;;1.73;1.63;;;;;;;3.86;nan;-17297.22;4954235;29;20189;-63
2023/12/05 05:28:46;;;;;;;1.60;1.50;;;;;;;4.06;nan;-16668.88;4954369;29;20210;-63
2023/12/05 05:31:12;;;;;;;1.70;1.60;;;;;;;4.02;nan;-16668.22;4954283;29;20714;-64
2023/12/05 05:33:37;;;;;;;1.70;1.60;;;;;;;4.06;nan;-16352.81;4954174;29;20185;-64
2023/12/05 05:36:04;;;;;;;1.83;1.47;;;;;;;3.82;nan;-16349.03;4954464;29;20174;-63
2023/12/05 05:38:29;;;;;;;1.23;1.23;;;;;;;3.83;nan;-16349.22;4954592;29;20177;-66
2023/12/05 05:41:04;;;;;;;2.13;2.00;;;;;;;4.02;nan;-16352.16;4948396;29;20175;-64
2023/12/05 05:43:30;;;;;;;1.60;1.50;;;;;;;3.82;nan;-16980.72;4943946;29;20604;-64
2023/12/05 05:45:56;;;;;;;1.83;1.73;;;;;;;4.07;nan;-16985.00;4943292;28;20221;-63
2023/12/05 05:48:21;;;;;;;1.60;1.50;;;;;;;4.03;nan;-16668.28;4945149;29;20658;-64
2023/12/05 05:50:47;;;;;;;3.67;1.80;;;;;;;3.87;nan;-16665.81;4943706;29;20179;-65
2023/12/05 05:53:12;;;;;;;1.60;1.50;;;;;;;3.89;nan;-16981.91;4944204;29;20265;-65
2023/12/05 05:55:37;;;;;;;3.23;2.67;;;;;;;4.07;nan;-16984.91;4939736;29;20659;-65
2023/12/05 05:58:03;;;;;;;2.03;1.83;;;;;;;4.04;nan;-16984.47;4934932;29;20215;-65
2023/12/05 06:00:28;;;;;;;2.63;1.67;;;;;;;3.84;nan;-16981.16;4952845;29;20221;-64
2023/12/05 06:02:54;;;;;;;1.20;1.10;;;;;;;3.88;nan;-16981.84;4953919;29;20182;-63
2023/12/05 06:05:19;;;;;;;1.90;1.80;;;;;;;4.09;nan;-16985.25;4954150;29;20202;-64
2023/12/05 06:07:45;;;;;;;1.70;1.60;;;;;;;3.87;nan;-16981.66;4956568;28;20232;-62
2023/12/05 06:10:10;;;;;;;1.60;1.50;;;;;;;4.09;nan;-16985.31;4956051;28;20173;-65
2023/12/05 06:12:36;;;;;;;1.77;1.67;;;;;;;3.83;nan;-17928.22;4959482;28;20228;-64
2023/12/05 06:15:01;;;;;;;1.77;1.63;;;;;;;3.80;nan;-18243.34;4952193;29;20216;-64
2023/12/05 06:17:26;;;;;;;2.27;2.07;;;;;;;3.87;nan;-18560.47;4952135;28;20336;-64
2023/12/05 06:19:53;;;;;;;1.77;1.67;;;;;;;3.77;nan;-18874.13;4951700;28;20190;-66
2023/12/05 06:22:18;;;;;;;2.33;2.13;;;;;;;3.96;nan;-18877.97;4952455;29;20277;-63
2023/12/05 06:24:44;;;;;;;1.77;1.67;;;;;;;4.26;nan;-18252.03;4952325;28;20235;-64
2023/12/05 06:27:09;;;;;;;1.50;1.40;;;;;;;4.09;nan;-18248.78;4938292;29;20304;-63
2023/12/05 06:29:35;;;;;;;2.30;2.10;;;;;;;4.10;nan;-18564.91;4951914;29;20265;-63
2023/12/05 06:32:01;;;;;;;2.80;2.53;;;;;;;4.20;nan;-18566.84;4951791;29;20281;-64
2023/12/05 06:34:27;;;;;;;2.53;2.33;;;;;;;4.09;nan;-18248.88;4951173;29;20261;-65
2023/12/05 06:36:53;;;;;;;1.63;1.30;;;;;;;4.09;nan;-18564.59;4951673;29;20182;-63
2023/12/05 06:39:18;;;;;;;4.53;2.53;;;;;;;4.28;nan;-18884.31;4941708;29;20185;-63
2023/12/05 06:41:43;;;;;;;2.07;1.97;;;;;;;4.17;nan;-18250.41;4951549;29;20677;-64
2023/12/05 06:44:09;;;;;;;3.27;2.10;;;;;;;4.37;nan;-18570.19;4951419;28;20186;-65
2023/12/05 06:46:34;;;;;;;1.83;1.73;;;;;;;4.44;nan;-18571.47;4942431;29;20224;-64
2023/12/05 06:49:00;;;;;;;2.60;1.93;;;;;;;4.33;nan;-18253.47;4936857;29;20281;-64
2023/12/05 06:51:26;;;;;;;2.20;2.10;;;;;;;4.28;nan;-17620.59;4951477;29;20245;-63
2023/12/05 06:53:51;;;;;;;1.90;1.80;;;;;;;4.47;nan;-17623.84;4952471;29;20314;-64
2023/12/05 06:56:19;;;;;;;3.40;2.70;;;;;;;4.60;nan;-17626.19;4950995;29;20661;-64
2023/12/05 06:58:45;;;;;;;2.10;1.87;;;;;;;4.54;nan;-17625.13;4951074;29;20249;-64
2023/12/05 07:01:10;;;;;;;1.77;1.67;;;;;;;4.50;nan;-17624.50;4951189;29;20194;-65
2023/12/05 07:03:36;;;;;;;1.77;1.67;;;;;;;4.66;nan;-17943.53;4951406;29;20273;-64
2023/12/05 07:06:01;;;;;;;3.30;2.33;;;;;;;4.65;nan;-18259.41;4950845;29;20396;-65
2023/12/05 07:08:27;;;;;;;2.17;2.07;;;;;;;4.76;nan;-17312.94;4951067;28;20249;-63
2023/12/05 07:10:53;;;;;;;1.63;1.53;;;;;;;4.72;nan;-16046.91;4942031;29;20221;-63
2023/12/05 07:13:18;;;;;;;2.00;1.87;;;;;;;4.47;nan;-16043.13;4950721;29;20186;-64
2023/12/05 07:15:44;;;;;;;1.53;1.43;;;;;;;4.45;nan;-16675.31;4952711;28;20189;-63
2023/12/05 07:18:09;;;;;;;2.37;1.80;;;;;;;4.42;nan;-16990.94;4952813;29;20186;-64
2023/12/05 07:23:57;;;;;;;2.10;2.00;;;;;;;4.64;nan;-17310.81;4939935;28;20216;-64
2023/12/05 07:26:22;;;;;;;2.13;1.93;;;;;;;4.68;nan;-15729.94;4951364;29;20539;-63
2023/12/05 07:28:47;;;;;;;1.43;1.40;;;;;;;4.51;nan;-15411.09;4951517;29;20194;-63
2023/12/05 07:31:13;;;;;;;2.77;2.57;;;;;;;4.63;nan;-15729.19;4952243;29;20650;-64
2023/12/05 07:33:38;;;;;;;1.93;1.83;;;;;;;4.73;nan;-16047.06;4952209;28;20597;-65
2023/12/05 07:36:05;;;;;;;1.73;1.63;;;;;;;4.64;nan;-15413.03;4952307;29;20313;-65
2023/12/05 07:38:32;;;;;;;1.97;1.83;;;;;;;4.62;nan;-15412.69;4956073;28;20220;-64
2023/12/05 07:40:57;;;;;;;3.63;1.50;;;;;;;4.62;nan;-15729.13;4956187;29;20178;-64
2023/12/05 07:43:23;;;;;;;1.63;1.53;;;;;;;4.65;nan;-15729.50;4956436;29;20189;-65
2023/12/05 07:45:49;;;;;;;1.93;1.80;;;;;;;4.92;nan;-15733.53;4956438;29;20221;-64
2023/12/05 07:48:15;;;;;;;1.80;1.70;;;;;;;4.85;nan;-14149.84;4956593;29;20174;-64
2023/12/05 07:50:40;;;;;;;3.63;2.30;;;;;;;4.95;nan;-15100.88;4956754;29;20262;-64
2023/12/05 07:53:06;;;;;;;1.70;1.60;;;;;;;4.96;nan;-15101.00;4955940;29;20665;-63
2023/12/05 07:55:31;;;;;;;2.63;2.37;;;;;;;5.30;nan;-15105.66;4956547;29;20225;-63
2023/12/05 07:57:56;;;;;;;2.10;1.90;;;;;;;5.45;nan;-14474.00;4956116;28;20178;-64
2023/12/05 08:00:22;;;;;;;1.57;1.47;;;;;;;5.74;nan;-12892.00;4956258;28;20313;-65
2023/12/05 08:02:47;;;;;;;4.07;2.40;;;;;;;5.94;nan;-11307.09;4955259;29;20194;-63
2023/12/05 08:05:13;;;;;;;1.50;1.40;;;;;;;6.09;nan;-7813.44;4955925;29;20197;-64
2023/12/05 08:07:39;;;;;;;2.00;1.70;;;;;;;6.45;nan;-5905.09;4956241;28;20170;-65
2023/12/05 08:10:06;;;;;;;2.73;2.53;;;;;;;6.74;nan;-2400.41;4955679;29;20240;-64
2023/12/05 08:12:31;;;;;;;1.70;1.60;;;;;;;6.83;nan;-167.41;4956020;29;20645;-64
2023/12/05 08:14:57;;;;;;;1.93;1.83;;;;;;;6.38;nan;-809.78;4955839;29;20229;-65
2023/12/05 08:17:22;;;;;;;2.30;2.10;;;;;;;6.73;nan;1107.59;4955964;29;20171;-65
2023/12/05 08:19:48;;;;;;;1.30;1.30;;;;;;;6.67;nan;1106.81;4955585;29;20252;-65
2023/12/05 08:22:13;;;;;;;2.33;2.13;;;;;;;6.96;nan;-485.03;4955774;29;20275;-64
2023/12/05 08:24:39;;;;;;;2.03;1.90;;;;;;;6.85;nan;3024.50;4955823;29;20668;-64
2023/12/05 08:27:04;;;;;;;1.97;1.80;;;;;;;6.83;nan;8137.34;4955573;29;20654;-65
2023/12/05 08:29:29;;;;;;;4.33;1.80;;;;;;;6.98;nan;9420.75;4955376;29;20570;-64
2023/12/05 08:31:55;;;;;;;1.43;1.37;;;;;;;6.84;nan;9097.22;4955633;29;20182;-66
2023/12/05 08:34:20;;;;;;;3.27;2.03;;;;;;;6.82;nan;7177.81;4955197;28;20170;-64
2023/12/05 08:36:45;;;;;;;2.83;1.63;;;;;;;7.10;nan;4945.97;4955303;29;20170;-63
2023/12/05 08:39:12;;;;;;;1.30;1.30;;;;;;;6.72;nan;788.41;4955276;29;20174;-63
2023/12/05 08:41:37;;;;;;;1.50;1.40;;;;;;;7.07;nan;473.56;4955138;29;20177;-63
2023/12/05 08:44:03;;;;;;;1.60;1.50;;;;;;;7.15;nan;-1440.47;4955385;29;20174;-64
2023/12/05 08:46:28;;;;;;;3.47;1.90;;;;;;;7.24;nan;-3353.69;4955011;29;20278;-64
2023/12/05 08:48:54;;;;;;;2.50;1.93;;;;;;;7.41;nan;-1118.91;4954213;28;20646;-64
2023/12/05 08:51:19;;;;;;;3.00;1.87;;;;;;;7.31;nan;2392.88;4954963;28;20645;-64
2023/12/05 08:53:45;;;;;;;1.50;1.40;;;;;;;7.62;nan;3996.25;4955166;29;20225;-64
2023/12/05 08:56:12;;;;;;;1.92;1.83;;;;;;;7.74;nan;3998.28;4955112;29;20237;-64
2023/12/05 08:58:37;;;;;;;1.70;1.60;;;;;;;7.70;nan;4957.41;4955195;29;20167;-65
2023/12/05 09:01:03;;;;;;;1.87;1.73;;;;;;;7.63;nan;3676.59;4955208;29;20596;-64
2023/12/05 09:03:29;;;;;;;2.15;1.75;;;;;;;7.76;nan;7199.19;4954968;29;20186;-64
2023/12/05 09:05:54;;;;;;;2.08;1.67;;;;;;;7.93;nan;9446.13;4954679;29;20194;-63
2023/12/05 09:08:21;;;;;;;2.42;2.22;;;;;;;8.07;nan;14904.13;4955144;29;20678;-64
2023/12/05 09:10:47;;;;;;;2.08;1.83;;;;;;;8.22;nan;17158.66;4954789;29;20170;-63
2023/12/05 09:13:13;;;;;;;2.30;2.10;;;;;;;8.20;nan;20051.78;4954724;29;20529;-65
2023/12/05 09:15:38;;;;;;;4.00;1.80;;;;;;;7.95;nan;18754.91;4954473;29;20513;-62
2023/12/05 09:18:03;;;;;;;2.63;1.80;;;;;;;8.28;nan;20055.56;4954575;29;20181;-63
2023/12/05 09:20:29;;;;;;;1.85;1.75;;;;;;;8.38;nan;20703.44;4954375;29;20227;-64
2023/12/05 09:22:54;;;;;;;2.08;1.88;;;;;;;8.26;nan;21341.81;4954618;29;20177;-63
2023/12/05 09:25:20;;;;;;;2.10;2.00;;;;;;;8.04;nan;21974.84;4954772;29;20193;-64
2023/12/05 09:27:45;;;;;;;2.17;2.08;;;;;;;8.28;nan;23274.19;4954489;29;20549;-64
2023/12/05 09:30:12;;;;;;;2.15;1.95;;;;;;;8.27;nan;21664.16;4954613;29;20170;-65
2023/12/05 09:32:37;;;;;;;2.17;1.98;;;;;;;7.69;nan;22280.00;4954366;28;20540;-65
2023/12/05 09:35:04;;;;;;;2.40;2.20;;;;;;;8.47;nan;24572.50;4954005;29;20687;-65
2023/12/05 09:37:30;;;;;;;2.17;1.98;;;;;;;8.56;nan;25866.44;4954554;29;20177;-64
2023/12/05 09:39:56;;;;;;;1.65;1.55;;;;;;;8.64;nan;27483.56;4954465;28;20209;-63
2023/12/05 09:42:25;;;;;;;4.30;2.67;;;;;;;8.62;nan;32648.44;4954464;29;20277;-63
2023/12/05 09:44:50;;;;;;;2.80;2.33;;;;;;;8.35;nan;28757.56;4954079;29;20166;-63
2023/12/05 09:47:20;;;;;;;1.90;1.67;;;;;;;8.13;nan;21979.38;4954156;28;20209;-62
2023/12/05 09:49:46;;;;;;;2.35;1.77;;;;;;;7.88;nan;15218.50;4953640;29;20289;-64
2023/12/05 09:52:12;;;;;;;2.43;2.27;;;;;;;7.94;nan;15863.13;4953650;29;20205;-63
2023/12/05 09:54:37;;;;;;;1.60;1.50;;;;;;;6.87;nan;15502.81;4953860;28;20650;-63
2023/12/05 09:57:04;;;;;;;1.95;1.80;;;;;;;8.13;nan;14906.47;4953949;28;20269;-64
2023/12/05 09:59:29;;;;;;;1.50;1.40;;;;;;;7.99;nan;18756.63;4954096;28;20182;-63
2023/12/05 10:02:02;;;;;;;1.70;1.55;;;;;;;7.63;nan;10399.13;4953114;28;20185;-63
2023/12/05 10:04:29;;;;;;;2.53;1.85;;;;;;;7.78;nan;10083.03;4954206;29;20256;-63
2023/12/05 10:06:58;;;;;;;2.28;1.90;;;;;;;7.90;nan;10406.97;4954003;29;20609;-62
2023/12/05 10:09:26;;;;;;;2.10;1.90;;;;;;;7.98;nan;8165.41;4952267;28;20185;-66
2023/12/05 10:11:52;;;;;;;2.35;1.88;;;;;;;8.11;nan;9130.09;4936117;29;20648;-64
2023/12/05 10:14:18;;;;;;;2.03;1.52;;;;;;;7.99;nan;8806.56;4953178;29;20190;-63
2023/12/05 10:16:44;;;;;;;1.60;1.50;;;;;;;8.12;nan;11696.19;4953399;29;20178;-64
2023/12/05 10:19:10;;;;;;;1.60;1.50;;;;;;;8.31;nan;13306.91;4953370;29;20170;-66
2023/12/05 10:21:37;;;;;;;1.73;1.63;;;;;;;8.21;nan;15230.34;4953591;29;20181;-64
2023/12/05 10:24:02;;;;;;;1.73;1.50;;;;;;;8.02;nan;13939.19;4953402;29;20170;-64
2023/12/05 10:26:28;;;;;;;2.22;2.03;;;;;;;7.96;nan;12332.84;4953048;29;20205;-63
2023/12/05 10:28:56;;;;;;;3.75;2.42;;;;;;;8.08;nan;12336.66;4952990;29;20178;-63
2023/12/05 10:31:28;;;;;;;1.85;1.75;;;;;;;;;;5066762;28;20638;-64
2023/12/05 10:34:04;;;;;;;2.22;1.58;;;;;;;8.01;nan;8486.59;5068170;28;20644;-65
2023/12/05 10:36:30;;;;;;;2.42;2.22;;;;;;;8.04;nan;8807.84;5067957;28;20166;-64
2023/12/05 10:38:55;;;;;;;2.40;2.17;;;;;;;8.19;nan;10094.19;5067647;28;20370;-64
2023/12/05 10:41:22;;;;;;;1.65;1.55;;;;;;;8.04;nan;10731.50;5067906;28;20193;-64
2023/12/05 10:43:49;;;;;;;2.53;2.10;;;;;;;7.80;nan;7200.13;5067487;28;20170;-65
2023/12/05 10:46:15;;;;;;;4.20;3.00;;;;;;;7.61;nan;3356.41;5067568;28;20216;-63
2023/12/05 10:48:41;;;;;;;1.60;1.50;;;;;;;7.58;nan;1438.09;5067548;28;20185;-64
2023/12/05 10:51:08;;;;;;;2.90;1.67;;;;;;;7.42;nan;477.63;5062585;28;20202;-63
2023/12/05 10:53:34;;;;;;;1.90;1.80;;;;;;;7.36;nan;476.91;5047207;28;20671;-64
2023/12/05 10:56:16;;;;;;;2.53;2.30;;;;;;;7.48;nan;158.97;5046151;28;20186;-64
2023/12/05 10:58:42;;;;;;;2.17;1.97;;;;;;;6.88;nan;-4948.91;5046043;28;20183;-65
2023/12/05 11:01:10;;;;;;;2.20;1.97;;;;;;;6.96;nan;-5267.28;5047401;28;20262;-64
2023/12/05 11:03:37;;;;;;;2.60;2.40;;;;;;;7.03;nan;-5585.69;5047420;28;20657;-66
2023/12/05 11:06:03;;;;;;;1.47;1.37;;;;;;;6.86;nan;-5904.50;5045985;28;20178;-65
2023/12/05 11:08:28;;;;;;;3.37;1.80;;;;;;;6.70;nan;-5904.75;5047182;28;20177;-64
2023/12/05 11:10:56;;;;;;;1.93;1.47;;;;;;;6.79;nan;-6859.75;5046683;28;20340;-65
2023/12/05 11:13:22;;;;;;;1.73;1.63;;;;;;;6.50;nan;-8132.19;5047286;28;20189;-63
2023/12/05 11:15:51;;;;;;;4.70;1.90;;;;;;;6.57;nan;-9722.50;5046943;28;20212;-64
2023/12/05 11:18:22;;;;;;;2.57;2.37;;;;;;;6.58;nan;-9404.53;5047265;28;20181;-63
2023/12/05 11:21:12;;;;;;;1.73;1.63;;;;;;;6.63;nan;-9722.75;5047373;28;20163;-63
2023/12/05 11:23:46;;;;;;;1.53;1.43;;;;;;;6.62;nan;-9722.72;5047087;28;20167;-65
2023/12/05 11:26:49;;;;;;;1.70;1.60;;;;;;;6.78;nan;-9405.41;5046623;28;20253;-64
2023/12/05 11:29:42;;;;;;;2.93;2.63;;;;;;;6.81;nan;-8451.13;5043980;28;20215;-64
2023/12/05 11:32:23;;;;;;;1.80;1.70;;;;;;;6.51;nan;-9722.19;5045377;28;20187;-64
2023/12/05 11:35:04;;;;;;;2.50;2.30;;;;;;;6.61;nan;-9722.66;5045384;28;20171;-66
2023/12/05 11:37:30;;;;;;;1.83;1.73;;;;;;;6.83;nan;-10359.78;5046659;28;20190;-64
2023/12/05 11:39:55;;;;;;;2.33;2.17;;;;;;;6.47;nan;-10039.88;5046255;28;20210;-66
2023/12/05 11:42:21;;;;;;;3.37;2.00;;;;;;;6.36;nan;-10674.81;5035760;28;20182;-64
2023/12/05 11:44:47;;;;;;;2.63;2.43;;;;;;;6.49;nan;-10675.63;5032917;28;20558;-64
2023/12/05 11:47:14;;;;;;;2.77;2.37;;;;;;;6.02;nan;-11942.66;5033209;28;20647;-62
2023/12/05 11:49:46;;;;;;;3.13;1.73;;;;;;;6.15;nan;-13848.22;5033087;28;20245;-64
2023/12/05 11:52:11;;;;;;;4.97;2.77;;;;;;;6.16;nan;-13848.41;5033156;28;20176;-64
2023/12/05 11:54:39;;;;;;;2.00;1.90;;;;;;;6.31;nan;-13215.22;5033062;28;20293;-64